createdAt,value
2018-12-03T00:01:32.436Z,3.37
2018-12-03T00:04:32.956Z,3.50
2018-12-03T00:07:01.763Z,3.07
2018-12-03T00:09:30.584Z,3.43
2018-12-03T00:11:59.386Z,3.77
2018-12-03T00:14:28.365Z,3.10
2018-12-03T00:16:57.176Z,3.53
2018-12-03T00:19:26.445Z,3.93
2018-12-03T00:21:55.271Z,3.60
2018-12-03T00:24:25.103Z,3.20
2018-12-03T00:26:53.967Z,3.23
2018-12-03T00:29:22.776Z,2.80
2018-12-03T00:31:51.556Z,2.90
2018-12-03T00:34:20.392Z,3.50
2018-12-03T00:36:49.818Z,3.30
2018-12-03T00:39:18.608Z,3.17
2018-12-03T00:41:47.407Z,3.47
2018-12-03T00:44:16.220Z,3.30
2018-12-03T00:46:45.023Z,2.97
2018-12-03T00:49:13.826Z,2.87
2018-12-03T00:51:42.624Z,3.30
2018-12-03T00:54:11.401Z,3.17
2018-12-03T00:56:40.194Z,2.93
2018-12-03T00:59:09.310Z,3.27
2018-12-03T01:01:38.149Z,2.83
2018-12-03T01:04:06.996Z,3.20
2018-12-03T01:06:35.792Z,3.83
2018-12-03T01:09:07.751Z,3.33
2018-12-03T01:11:36.956Z,3.77
2018-12-03T01:14:06.425Z,3.23
2018-12-03T01:16:34.605Z,3.83
2018-12-03T01:19:03.645Z,3.67
2018-12-03T01:21:32.916Z,3.60
2018-12-03T01:24:01.700Z,3.20
2018-12-03T01:26:30.512Z,3.40
2018-12-03T01:28:59.364Z,3.63
2018-12-03T01:31:28.156Z,3.67
2018-12-03T01:33:57.015Z,3.50
2018-12-03T01:36:25.826Z,2.93
2018-12-03T01:38:54.652Z,3.77
2018-12-03T01:41:23.463Z,3.63
2018-12-03T01:43:52.259Z,3.57
2018-12-03T01:46:21.064Z,3.33
2018-12-03T01:48:49.881Z,2.93
2018-12-03T01:51:18.722Z,3.47
2018-12-03T01:53:47.556Z,3.17
2018-12-03T01:56:16.431Z,3.03
2018-12-03T01:58:45.244Z,3.50
2018-12-03T02:01:14.050Z,3.23
2018-12-03T02:03:42.872Z,3.20
2018-12-03T02:06:11.672Z,3.07
2018-12-03T02:08:40.448Z,2.87
2018-12-03T02:11:09.256Z,3.13
2018-12-03T02:13:38.064Z,3.07
2018-12-03T02:16:06.865Z,3.00
2018-12-03T02:18:35.651Z,2.63
2018-12-03T02:21:04.499Z,2.70
2018-12-03T02:23:33.677Z,3.33
2018-12-03T02:26:02.512Z,3.30
2018-12-03T02:28:31.323Z,3.23
2018-12-03T02:31:00.124Z,3.60
2018-12-03T02:33:28.972Z,2.97
2018-12-03T02:35:57.821Z,3.70
2018-12-03T02:38:26.639Z,3.40
2018-12-03T02:40:55.435Z,3.13
2018-12-03T02:43:24.233Z,3.13
2018-12-03T02:45:53.035Z,2.90
2018-12-03T02:48:22.157Z,3.00
2018-12-03T02:50:50.974Z,3.10
2018-12-03T02:53:19.836Z,2.80
2018-12-03T02:55:48.681Z,2.90
2018-12-03T02:58:17.853Z,3.40
2018-12-03T03:00:46.674Z,3.73
2018-12-03T03:03:15.479Z,3.40
2018-12-03T03:05:44.285Z,3.30
2018-12-03T03:08:13.079Z,3.13
2018-12-03T03:10:41.900Z,2.60
2018-12-03T03:13:10.697Z,2.73
2018-12-03T03:15:39.512Z,3.10
2018-12-03T03:18:08.347Z,2.33
2018-12-03T03:20:37.178Z,2.60
2018-12-03T03:23:06.668Z,2.40
2018-12-03T03:25:36.288Z,2.20
2018-12-03T03:28:05.108Z,2.70
2018-12-03T03:30:33.899Z,2.40
2018-12-03T03:33:02.909Z,2.60
2018-12-03T03:35:31.721Z,2.50
2018-12-03T03:38:00.509Z,2.60
2018-12-03T03:40:29.333Z,2.63
2018-12-03T03:42:58.132Z,2.90
2018-12-03T03:45:27.137Z,3.07
2018-12-03T03:47:55.985Z,3.00
2018-12-03T03:50:24.806Z,3.20
2018-12-03T03:52:53.680Z,3.87
2018-12-03T03:55:22.537Z,4.77
2018-12-03T03:57:51.451Z,5.27
2018-12-03T04:00:20.280Z,5.13
2018-12-03T04:02:49.208Z,4.80
2018-12-03T04:05:18.021Z,5.37
2018-12-03T04:07:47.290Z,5.43
2018-12-03T04:10:16.725Z,6.83
2018-12-03T04:12:46.630Z,4.93
2018-12-03T04:15:16.544Z,5.00
2018-12-03T04:17:45.829Z,5.20
2018-12-03T04:20:18.982Z,5.77
2018-12-03T04:22:52.944Z,4.90
2018-12-03T04:25:21.786Z,5.47
2018-12-03T04:27:51.225Z,4.90
2018-12-03T04:30:21.570Z,4.73
2018-12-03T04:32:51.413Z,4.93
2018-12-03T04:35:20.319Z,5.33
2018-12-03T04:37:49.307Z,4.60
2018-12-03T04:40:18.176Z,3.87
2018-12-03T04:42:47.060Z,3.77
2018-12-03T04:45:17.582Z,4.30
2018-12-03T04:47:48.074Z,3.90
2018-12-03T04:50:19.342Z,4.23
2018-12-03T04:52:48.181Z,4.33
2018-12-03T04:55:18.678Z,4.63
2018-12-03T04:57:48.357Z,4.23
2018-12-03T05:00:18.772Z,4.27
2018-12-03T05:02:49.527Z,3.63
2018-12-03T05:05:18.370Z,4.13
2018-12-03T05:07:47.180Z,5.10
2018-12-03T05:10:17.641Z,3.97
2018-12-03T05:12:48.269Z,4.40
2018-12-03T05:15:17.089Z,3.93
2018-12-03T05:17:46.441Z,4.03
2018-12-03T05:20:19.250Z,3.63
2018-12-03T05:22:48.138Z,3.63
2018-12-03T05:25:19.365Z,4.87
2018-12-03T05:27:45.720Z,4.10
2018-12-03T05:30:16.224Z,3.83
2018-12-03T05:32:45.849Z,4.00
2018-12-03T05:35:19.229Z,4.40
2018-12-03T05:37:48.070Z,4.10
2018-12-03T05:40:21.265Z,4.57
2018-12-03T05:43:21.032Z,4.30
2018-12-03T05:45:49.118Z,4.10
2018-12-03T05:48:17.205Z,3.87
2018-12-03T05:50:45.283Z,4.07
2018-12-03T05:53:13.570Z,4.23
2018-12-03T05:55:41.654Z,4.20
2018-12-03T05:58:09.785Z,4.10
2018-12-03T06:00:37.886Z,4.20
2018-12-03T06:03:05.959Z,4.03
2018-12-03T06:05:34.078Z,3.83
2018-12-03T06:08:02.169Z,3.40
2018-12-03T06:10:30.277Z,3.70
2018-12-03T06:12:58.357Z,3.63
2018-12-03T06:15:26.476Z,4.10
2018-12-03T06:17:54.552Z,4.00
2018-12-03T06:20:22.631Z,3.73
2018-12-03T06:22:50.728Z,3.53
2018-12-03T06:25:18.995Z,3.63
2018-12-03T06:27:47.044Z,3.40
2018-12-03T06:30:15.141Z,4.00
2018-12-03T06:32:43.291Z,3.37
2018-12-03T06:35:11.374Z,3.33
2018-12-03T06:37:40.406Z,4.10
2018-12-03T06:40:08.734Z,3.67
2018-12-03T06:42:37.131Z,4.43
2018-12-03T06:45:06.557Z,4.07
2018-12-03T06:47:34.644Z,4.07
2018-12-03T06:50:02.993Z,4.10
2018-12-03T06:52:31.083Z,4.47
2018-12-03T06:54:59.181Z,3.80
2018-12-03T06:57:27.256Z,5.23
2018-12-03T06:59:55.599Z,4.33
2018-12-03T07:02:23.936Z,5.03
2018-12-03T07:04:52.086Z,4.67
2018-12-03T07:07:20.188Z,5.10
2018-12-03T07:09:48.279Z,5.10
2018-12-03T07:12:16.362Z,5.47
2018-12-03T07:14:44.460Z,5.00
2018-12-03T07:17:12.906Z,4.73
2018-12-03T07:19:41.011Z,5.23
2018-12-03T07:22:09.127Z,4.53
2018-12-03T07:24:37.203Z,5.17
2018-12-03T07:27:05.288Z,4.17
2018-12-03T07:29:33.378Z,5.27
2018-12-03T07:32:01.474Z,4.50
2018-12-03T07:34:29.549Z,4.37
2018-12-03T07:36:57.638Z,4.17
2018-12-03T07:39:25.718Z,4.87
2018-12-03T07:41:53.794Z,4.70
2018-12-03T07:44:21.912Z,4.47
2018-12-03T07:46:50.163Z,4.70
2018-12-03T07:49:18.248Z,5.03
2018-12-03T07:51:46.354Z,4.87
2018-12-03T07:54:14.425Z,4.47
2018-12-03T07:56:42.499Z,5.17
2018-12-03T07:59:10.609Z,4.60
2018-12-03T08:01:39.006Z,5.10
2018-12-03T08:04:07.080Z,5.37
2018-12-03T08:06:35.196Z,5.43
2018-12-03T08:09:05.027Z,5.27
2018-12-03T08:11:33.109Z,4.60
2018-12-03T08:14:01.192Z,4.93
2018-12-03T08:16:29.276Z,5.00
2018-12-03T08:18:57.349Z,4.57
2018-12-03T08:21:25.716Z,4.33
2018-12-03T08:23:53.793Z,8.87
2018-12-03T08:26:21.870Z,8.17
2018-12-03T08:28:50.499Z,4.67
2018-12-03T08:31:18.598Z,4.13
2018-12-03T08:33:46.653Z,5.03
2018-12-03T08:36:15.050Z,4.63
2018-12-03T08:38:43.093Z,3.87
2018-12-03T08:41:11.173Z,4.07
2018-12-03T08:43:39.308Z,3.73
2018-12-03T08:46:07.382Z,4.10
2018-12-03T08:48:35.657Z,4.17
2018-12-03T08:51:03.763Z,9.23
2018-12-03T08:53:31.836Z,9.93
2018-12-03T08:55:59.909Z,4.90
2018-12-03T08:58:27.993Z,5.70
2018-12-03T09:00:56.074Z,9.33
2018-12-03T09:03:24.154Z,5.27
2018-12-03T09:05:52.254Z,4.63
2018-12-03T09:08:20.503Z,4.20
2018-12-03T09:10:48.575Z,3.13
2018-12-03T09:13:16.908Z,4.23
2018-12-03T09:15:49.031Z,4.10
2018-12-03T09:18:17.126Z,3.83
2018-12-03T09:20:45.221Z,4.50
2018-12-03T09:23:13.339Z,3.90
2018-12-03T09:25:41.449Z,3.53
2018-12-03T09:28:09.538Z,3.80
2018-12-03T09:30:37.877Z,5.63
2018-12-03T09:33:05.955Z,3.87
2018-12-03T09:35:34.274Z,3.80
2018-12-03T09:38:02.345Z,3.10
2018-12-03T09:40:30.450Z,3.33
2018-12-03T09:42:58.534Z,3.80
2018-12-03T09:45:26.625Z,3.47
2018-12-03T09:47:54.703Z,2.90
2018-12-03T09:50:23.423Z,3.63
2018-12-03T09:52:51.835Z,3.40
2018-12-03T09:55:19.907Z,3.60
2018-12-03T09:57:54.107Z,3.17
2018-12-03T10:00:22.190Z,2.83
2018-12-03T10:02:50.261Z,3.33
2018-12-03T10:05:18.375Z,2.80
2018-12-03T10:07:46.454Z,3.10
2018-12-03T10:10:14.546Z,3.03
2018-12-03T10:12:42.700Z,3.23
2018-12-03T10:15:11.508Z,3.27
2018-12-03T10:17:39.578Z,2.97
2018-12-03T10:20:08.471Z,2.50
2018-12-03T10:22:36.544Z,2.43
2018-12-03T10:25:08.543Z,3.53
2018-12-03T10:27:36.660Z,2.60
2018-12-03T10:30:11.909Z,4.60
2018-12-03T10:32:39.978Z,2.27
2018-12-03T10:35:08.633Z,2.10
2018-12-03T10:37:36.703Z,3.00
2018-12-03T10:40:08.996Z,2.40
2018-12-03T10:42:37.116Z,2.87
2018-12-03T10:45:09.577Z,2.57
2018-12-03T10:47:37.656Z,2.30
2018-12-03T10:50:10.267Z,2.40
2018-12-03T10:52:38.343Z,2.63
2018-12-03T10:55:08.155Z,3.30
2018-12-03T10:57:36.356Z,3.17
2018-12-03T11:00:09.634Z,3.50
2018-12-03T11:02:39.583Z,3.10
2018-12-03T11:05:25.986Z,2.20
2018-12-03T11:07:54.132Z,1.80
2018-12-03T11:10:22.211Z,2.47
2018-12-03T11:12:50.388Z,2.03
2018-12-03T11:15:18.752Z,2.37
2018-12-03T11:17:46.903Z,2.03
2018-12-03T11:20:14.998Z,3.33
2018-12-03T11:22:43.076Z,3.10
2018-12-03T11:25:11.156Z,2.63
2018-12-03T11:27:39.534Z,1.90
2018-12-03T11:30:08.727Z,1.72
2018-12-03T11:32:37.082Z,1.90
2018-12-03T11:35:06.293Z,1.63
2018-12-03T11:37:34.373Z,1.73
2018-12-03T11:40:09.936Z,1.50
2018-12-03T11:42:38.024Z,1.70
2018-12-03T11:45:08.780Z,2.17
2018-12-03T11:47:36.848Z,1.63
2018-12-03T11:50:08.893Z,1.60
2018-12-03T11:52:36.963Z,1.57
2018-12-03T11:55:06.875Z,1.50
2018-12-03T11:57:34.976Z,1.67
2018-12-03T12:00:03.396Z,1.73
2018-12-03T12:02:31.772Z,2.13
2018-12-03T12:04:59.888Z,1.80
2018-12-03T12:07:27.961Z,1.63
2018-12-03T12:09:56.040Z,1.87
2018-12-03T12:12:24.401Z,1.40
2018-12-03T12:14:52.472Z,1.57
2018-12-03T12:17:20.550Z,1.57
2018-12-03T12:19:48.633Z,1.33
2018-12-03T12:22:16.708Z,1.43
2018-12-03T12:24:44.795Z,3.03
2018-12-03T12:27:12.906Z,1.77
2018-12-03T12:29:40.985Z,1.27
2018-12-03T12:32:09.061Z,1.20
2018-12-03T12:34:37.177Z,1.30
2018-12-03T12:37:06.210Z,1.30
2018-12-03T12:39:34.275Z,1.70
2018-12-03T12:42:02.357Z,1.67
2018-12-03T12:44:30.431Z,1.63
2018-12-03T12:46:58.512Z,1.30
2018-12-03T12:49:26.596Z,1.50
2018-12-03T12:51:55.035Z,2.57
2018-12-03T12:54:23.100Z,1.70
2018-12-03T12:56:51.220Z,1.23
2018-12-03T12:59:19.296Z,1.23
2018-12-03T13:01:47.367Z,1.10
2018-12-03T13:04:15.451Z,1.60
2018-12-03T13:06:43.542Z,1.60
2018-12-03T13:09:11.640Z,1.50
2018-12-03T13:11:39.788Z,1.63
2018-12-03T13:14:07.808Z,1.70
2018-12-03T13:16:35.889Z,1.37
2018-12-03T13:19:04.794Z,2.07
2018-12-03T13:21:32.877Z,1.32
2018-12-03T13:24:00.956Z,1.97
2018-12-03T13:26:29.039Z,1.77
2018-12-03T13:28:57.122Z,2.23
2018-12-03T13:31:25.198Z,2.07
2018-12-03T13:33:53.283Z,2.30
2018-12-03T13:36:21.370Z,2.15
2018-12-03T13:38:49.448Z,2.10
2018-12-03T13:41:18.081Z,1.83
2018-12-03T13:43:46.189Z,2.27
2018-12-03T13:46:14.571Z,1.93
2018-12-03T13:48:42.653Z,2.07
2018-12-03T13:51:10.744Z,2.67
2018-12-03T13:53:38.823Z,2.23
2018-12-03T13:56:07.303Z,1.93
2018-12-03T13:58:35.384Z,2.27
2018-12-03T14:01:04.620Z,2.10
2018-12-03T14:03:32.762Z,2.90
2018-12-03T14:06:00.834Z,2.17
2018-12-03T14:08:28.910Z,2.20
2018-12-03T14:10:57.013Z,2.20
2018-12-03T14:13:25.737Z,2.97
2018-12-03T14:15:53.885Z,2.60
2018-12-03T14:18:21.975Z,2.77
2018-12-03T14:20:50.083Z,2.50
2018-12-03T14:23:18.154Z,2.50
2018-12-03T14:25:46.268Z,2.97
2018-12-03T14:28:14.341Z,2.47
2018-12-03T14:30:42.730Z,2.87
2018-12-03T14:33:10.814Z,2.33
2018-12-03T14:35:39.185Z,2.80
2018-12-03T14:38:07.262Z,3.50
2018-12-03T14:40:35.354Z,3.00
2018-12-03T14:43:04.401Z,3.00
2018-12-03T14:45:32.482Z,3.30
2018-12-03T14:48:00.806Z,2.93
2018-12-03T14:50:28.887Z,2.90
2018-12-03T14:52:56.970Z,2.90
2018-12-03T14:55:25.069Z,2.93
2018-12-03T14:57:53.136Z,2.93
2018-12-03T15:00:21.219Z,3.13
2018-12-03T15:02:49.309Z,2.90
2018-12-03T15:05:17.387Z,3.20
2018-12-03T15:07:45.469Z,2.57
2018-12-03T15:10:13.649Z,2.70
2018-12-03T15:12:41.721Z,3.00
2018-12-03T15:15:09.806Z,3.37
2018-12-03T15:17:37.900Z,3.10
2018-12-03T15:20:07.048Z,4.72
2018-12-03T15:22:35.127Z,4.17
2018-12-03T15:25:03.498Z,3.77
2018-12-03T15:27:31.574Z,6.60
2018-12-03T15:29:59.651Z,3.37
2018-12-03T15:32:28.147Z,3.27
2018-12-03T15:34:56.226Z,3.83
2018-12-03T15:37:24.299Z,2.77
2018-12-03T15:39:52.392Z,3.30
2018-12-03T15:42:20.865Z,3.33
2018-12-03T15:44:48.955Z,3.03
2018-12-03T15:47:17.043Z,3.10
2018-12-03T15:49:45.112Z,2.90
2018-12-03T15:52:13.191Z,3.07
2018-12-03T15:54:41.412Z,3.50
2018-12-03T15:57:09.684Z,3.47
2018-12-03T15:59:37.762Z,3.90
2018-12-03T16:02:06.246Z,3.87
2018-12-03T16:04:34.319Z,3.60
2018-12-03T16:07:02.396Z,3.27
2018-12-03T16:09:30.513Z,3.70
2018-12-03T16:11:58.594Z,4.00
2018-12-03T16:14:26.909Z,3.80
2018-12-03T16:16:56.108Z,4.03
2018-12-03T16:19:24.183Z,4.43
2018-12-03T16:21:52.264Z,9.20
2018-12-03T16:24:20.368Z,4.97
2018-12-03T16:26:48.450Z,4.10
2018-12-03T16:29:16.522Z,4.23
2018-12-03T16:31:44.613Z,4.30
2018-12-03T16:34:12.692Z,4.10
2018-12-03T16:36:40.771Z,4.20
2018-12-03T16:39:09.028Z,4.27
2018-12-03T16:41:37.113Z,4.20
2018-12-03T16:44:05.190Z,4.57
2018-12-03T16:46:33.318Z,4.20
2018-12-03T16:49:01.348Z,4.03
2018-12-03T16:51:29.421Z,5.07
2018-12-03T16:53:57.516Z,5.53
2018-12-03T16:56:25.847Z,4.00
2018-12-03T16:58:54.046Z,4.03
2018-12-03T17:01:22.298Z,4.25
2018-12-03T17:03:50.365Z,3.77
2018-12-03T17:06:18.439Z,4.43
2018-12-03T17:08:46.530Z,4.00
2018-12-03T17:11:14.612Z,7.77
2018-12-03T17:13:42.758Z,4.83
2018-12-03T17:16:10.843Z,4.23
2018-12-03T17:18:39.184Z,5.00
2018-12-03T17:21:07.259Z,4.20
2018-12-03T17:23:35.778Z,5.90
2018-12-03T17:26:03.885Z,6.67
2018-12-03T17:28:31.951Z,4.50
2018-12-03T17:31:00.055Z,5.10
2018-12-03T17:33:28.134Z,4.43
2018-12-03T17:35:56.213Z,5.20
2018-12-03T17:38:24.461Z,5.07
2018-12-03T17:40:52.532Z,4.50
2018-12-03T17:43:20.613Z,4.53
2018-12-03T17:45:49.019Z,4.97
2018-12-03T17:48:17.098Z,4.67
2018-12-03T17:50:45.172Z,5.70
2018-12-03T17:53:13.274Z,4.83
2018-12-03T17:55:41.352Z,4.90
2018-12-03T17:58:09.502Z,4.80
2018-12-03T18:00:37.936Z,5.43
2018-12-03T18:03:06.008Z,5.13
2018-12-03T18:05:34.107Z,5.20
2018-12-03T18:08:02.472Z,5.50
2018-12-03T18:10:30.553Z,6.67
2018-12-03T18:12:58.623Z,5.60
2018-12-03T18:15:26.719Z,6.63
2018-12-03T18:17:54.797Z,6.27
2018-12-03T18:20:22.881Z,6.37
2018-12-03T18:22:50.969Z,6.37
2018-12-03T18:25:19.051Z,6.70
2018-12-03T18:27:47.193Z,6.13
2018-12-03T18:30:15.668Z,5.87
2018-12-03T18:32:43.777Z,6.30
2018-12-03T18:35:11.856Z,5.80
2018-12-03T18:37:40.199Z,6.00
2018-12-03T18:40:08.480Z,5.57
2018-12-03T18:42:36.549Z,6.37
2018-12-03T18:45:05.762Z,5.77
2018-12-03T18:47:34.148Z,5.83
2018-12-03T18:50:02.541Z,5.90
2018-12-03T18:52:30.789Z,5.70
2018-12-03T18:54:58.851Z,8.20
2018-12-03T18:57:26.927Z,7.17
2018-12-03T18:59:55.016Z,6.97
2018-12-03T19:02:23.095Z,7.10
2018-12-03T19:04:51.169Z,7.60
2018-12-03T19:07:19.355Z,6.70
2018-12-03T19:09:47.430Z,7.50
2018-12-03T19:12:15.506Z,6.33
2018-12-03T19:14:44.325Z,7.40
2018-12-03T19:17:12.478Z,6.00
2018-12-03T19:19:40.554Z,6.60
2018-12-03T19:22:08.649Z,5.97
2018-12-03T19:24:36.721Z,6.43
2018-12-03T19:27:04.807Z,6.73
2018-12-03T19:29:38.651Z,5.40
2018-12-03T19:32:02.899Z,5.37
2018-12-03T19:34:30.974Z,4.73
2018-12-03T19:36:59.275Z,4.53
2018-12-03T19:39:27.463Z,5.80
2018-12-03T19:41:55.538Z,4.87
2018-12-03T19:44:23.626Z,5.57
2018-12-03T19:46:51.823Z,5.47
2018-12-03T19:49:19.895Z,5.20
2018-12-03T19:51:47.990Z,4.80
2018-12-03T19:54:16.141Z,4.87
2018-12-03T19:56:44.213Z,5.47
2018-12-03T19:59:12.401Z,4.97
2018-12-03T20:01:40.478Z,5.00
2018-12-03T20:04:20.558Z,5.53
2018-12-03T20:06:49.088Z,4.63
2018-12-03T20:09:17.262Z,4.30
2018-12-03T20:11:45.345Z,4.27
2018-12-03T20:14:13.424Z,4.87
2018-12-03T20:16:41.499Z,4.63
2018-12-03T20:19:09.607Z,4.67
2018-12-03T20:21:37.689Z,4.50
2018-12-03T20:24:05.837Z,4.83
2018-12-03T20:26:33.935Z,4.47
2018-12-03T20:29:02.636Z,4.70
2018-12-03T20:31:34.633Z,4.83
2018-12-03T20:34:06.045Z,5.10
2018-12-03T20:36:34.407Z,5.47
2018-12-03T20:39:06.900Z,4.70
2018-12-03T20:41:35.438Z,4.73
2018-12-03T20:44:07.136Z,4.80
2018-12-03T20:46:36.756Z,4.80
2018-12-03T20:49:09.757Z,4.30
2018-12-03T20:51:37.833Z,4.23
2018-12-03T20:54:05.910Z,4.43
2018-12-03T20:56:34.064Z,4.80
2018-12-03T20:59:02.145Z,3.70
2018-12-03T21:01:30.325Z,4.30
2018-12-03T21:03:58.472Z,4.97
2018-12-03T21:06:26.545Z,4.90
2018-12-03T21:08:54.625Z,5.70
2018-12-03T21:11:22.714Z,4.97
2018-12-03T21:13:50.790Z,4.73
2018-12-03T21:16:18.872Z,5.00
2018-12-03T21:18:46.952Z,5.30
2018-12-03T21:21:15.024Z,5.03
2018-12-03T21:23:43.097Z,5.00
2018-12-03T21:26:11.285Z,4.80
2018-12-03T21:28:39.354Z,4.77
2018-12-03T21:31:07.432Z,4.67
2018-12-03T21:33:35.532Z,4.33
2018-12-03T21:36:03.920Z,4.77
2018-12-03T21:38:32.009Z,4.50
2018-12-03T21:41:00.210Z,4.67
2018-12-03T21:43:28.362Z,4.53
2018-12-03T21:45:56.442Z,4.40
2018-12-03T21:48:25.039Z,4.93
2018-12-03T21:50:53.138Z,4.23
2018-12-03T21:53:21.204Z,4.67
2018-12-03T21:55:49.305Z,4.50
2018-12-03T21:58:17.696Z,4.33
2018-12-03T22:00:45.775Z,4.60
2018-12-03T22:03:13.890Z,4.40
2018-12-03T22:05:42.040Z,4.80
2018-12-03T22:08:10.119Z,4.90
2018-12-03T22:10:38.365Z,4.33
2018-12-03T22:13:06.728Z,3.73
2018-12-03T22:15:34.812Z,4.73
2018-12-03T22:18:02.906Z,4.23
2018-12-03T22:20:31.358Z,4.47
2018-12-03T22:22:59.430Z,4.40
2018-12-03T22:25:27.526Z,4.60
2018-12-03T22:27:55.602Z,4.43
2018-12-03T22:30:23.673Z,4.40
2018-12-03T22:32:51.786Z,4.00
2018-12-03T22:35:19.866Z,3.77
2018-12-03T22:37:47.942Z,4.27
2018-12-03T22:40:16.045Z,3.90
2018-12-03T22:42:44.134Z,4.50
2018-12-03T22:45:12.220Z,5.10
2018-12-03T22:47:40.300Z,4.67
2018-12-03T22:50:08.376Z,3.93
2018-12-03T22:52:36.454Z,3.77
2018-12-03T22:55:04.649Z,3.97
2018-12-03T22:57:32.729Z,3.90
2018-12-03T23:00:00.872Z,3.77
2018-12-03T23:02:29.296Z,3.57
2018-12-03T23:04:57.604Z,3.40
2018-12-03T23:07:25.684Z,3.87
2018-12-03T23:09:53.840Z,3.97
2018-12-03T23:12:21.913Z,3.17
2018-12-03T23:14:49.985Z,3.03
2018-12-03T23:17:18.385Z,3.30
2018-12-03T23:19:46.462Z,3.40
2018-12-03T23:22:14.536Z,3.77
2018-12-03T23:24:42.623Z,2.90
2018-12-03T23:27:10.704Z,3.07
2018-12-03T23:29:38.781Z,3.20
2018-12-03T23:32:06.951Z,3.30
2018-12-03T23:34:35.029Z,2.80
2018-12-03T23:37:03.106Z,3.07
2018-12-03T23:39:31.213Z,3.33
2018-12-03T23:41:59.544Z,3.70
2018-12-03T23:44:27.621Z,2.90
2018-12-03T23:46:55.731Z,3.20
2018-12-03T23:49:23.809Z,3.73
2018-12-03T23:51:51.884Z,3.33
2018-12-03T23:54:19.969Z,2.80
2018-12-03T23:56:48.045Z,2.80
2018-12-03T23:59:16.120Z,2.90
